createdAt,value
2018-12-15T00:00:05.366Z,1.609344
2018-12-15T00:00:17.883Z,9.656064
2018-12-15T00:00:30.243Z,9.656064
2018-12-15T00:00:42.585Z,9.656064
2018-12-15T00:00:54.932Z,9.656064
2018-12-15T00:01:07.288Z,3.218688
2018-12-15T00:01:19.646Z,3.218688
2018-12-15T00:01:33.199Z,8.04672
2018-12-15T00:01:45.551Z,8.04672
2018-12-15T00:01:57.900Z,8.04672
2018-12-15T00:02:10.242Z,1.609344
2018-12-15T00:02:22.694Z,3.218688
2018-12-15T00:02:35.196Z,3.218688
2018-12-15T00:02:47.553Z,3.218688
2018-12-15T00:02:59.883Z,3.218688
2018-12-15T00:03:12.213Z,3.218688
2018-12-15T00:03:24.571Z,3.218688
2018-12-15T00:03:36.916Z,3.218688
2018-12-15T00:03:49.256Z,3.218688
2018-12-15T00:04:01.621Z,3.218688
2018-12-15T00:04:13.973Z,3.218688
2018-12-15T00:04:26.310Z,4.828032
2018-12-15T00:04:38.710Z,6.437376
2018-12-15T00:04:51.052Z,6.437376
2018-12-15T00:05:03.396Z,6.437376
2018-12-15T00:05:15.809Z,6.437376
2018-12-15T00:05:28.158Z,8.04672
2018-12-15T00:05:40.503Z,8.04672
2018-12-15T00:05:53.007Z,9.656064
2018-12-15T00:06:05.432Z,8.04672
2018-12-15T00:06:17.792Z,8.04672
2018-12-15T00:06:30.173Z,8.04672
2018-12-15T00:06:42.521Z,9.656064
2018-12-15T00:06:54.863Z,9.656064
2018-12-15T00:07:07.199Z,9.656064
2018-12-15T00:07:19.537Z,9.656064
2018-12-15T00:07:31.955Z,9.656064
2018-12-15T00:07:44.305Z,9.656064
2018-12-15T00:07:56.632Z,9.656064
2018-12-15T00:08:08.989Z,8.04672
2018-12-15T00:08:21.329Z,12.874752
2018-12-15T00:08:33.675Z,12.874752
2018-12-15T00:08:46.092Z,12.874752
2018-12-15T00:08:58.455Z,12.874752
2018-12-15T00:09:10.781Z,8.04672
2018-12-15T00:09:23.498Z,8.04672
2018-12-15T00:09:35.855Z,8.04672
2018-12-15T00:09:48.221Z,9.656064
2018-12-15T00:10:00.579Z,9.656064
2018-12-15T00:10:12.927Z,3.218688
2018-12-15T00:10:25.275Z,9.656064
2018-12-15T00:10:37.621Z,9.656064
2018-12-15T00:10:49.956Z,9.656064
2018-12-15T00:11:02.311Z,11.265408
2018-12-15T00:11:14.767Z,9.656064
2018-12-15T00:11:27.157Z,9.656064
2018-12-15T00:11:39.489Z,9.656064
2018-12-15T00:11:51.866Z,9.656064
2018-12-15T00:12:04.227Z,9.656064
2018-12-15T00:12:16.573Z,9.656064
2018-12-15T00:12:28.933Z,9.656064
2018-12-15T00:12:41.359Z,11.265408
2018-12-15T00:12:53.734Z,11.265408
2018-12-15T00:13:06.079Z,9.656064
2018-12-15T00:13:18.447Z,9.656064
2018-12-15T00:13:30.790Z,9.656064
2018-12-15T00:13:43.122Z,9.656064
2018-12-15T00:13:55.480Z,9.656064
2018-12-15T00:14:07.835Z,3.218688
2018-12-15T00:14:20.197Z,3.218688
2018-12-15T00:14:33.098Z,3.218688
2018-12-15T00:14:45.436Z,3.218688
2018-12-15T00:14:57.799Z,3.218688
2018-12-15T00:15:10.132Z,1.609344
2018-12-15T00:15:22.474Z,1.609344
2018-12-15T00:15:34.893Z,1.609344
2018-12-15T00:15:47.239Z,1.609344
2018-12-15T00:15:59.573Z,1.609344
2018-12-15T00:16:11.930Z,1.609344
2018-12-15T00:16:24.262Z,1.609344
2018-12-15T00:16:36.886Z,1.609344
2018-12-15T00:16:49.262Z,3.218688
2018-12-15T00:17:07.889Z,1.609344
2018-12-15T00:17:20.244Z,3.218688
2018-12-15T00:17:32.585Z,3.218688
2018-12-15T00:17:44.997Z,3.218688
2018-12-15T00:17:57.337Z,3.218688
2018-12-15T00:18:09.821Z,3.218688
2018-12-15T00:18:22.155Z,3.218688
2018-12-15T00:18:34.560Z,3.218688
2018-12-15T00:18:46.938Z,9.656064
2018-12-15T00:18:59.305Z,9.656064
2018-12-15T00:19:11.651Z,8.04672
2018-12-15T00:19:23.987Z,8.04672
2018-12-15T00:19:36.330Z,8.04672
2018-12-15T00:19:48.668Z,8.04672
2018-12-15T00:20:01.004Z,8.04672
2018-12-15T00:20:13.347Z,1.609344
2018-12-15T00:20:25.695Z,3.218688
2018-12-15T00:20:38.041Z,3.218688
2018-12-15T00:20:50.405Z,3.218688
2018-12-15T00:21:02.762Z,4.828032
2018-12-15T00:21:15.158Z,6.437376
2018-12-15T00:21:27.502Z,6.437376
2018-12-15T00:21:39.922Z,8.04672
2018-12-15T00:21:52.282Z,8.04672
2018-12-15T00:22:04.629Z,3.218688
2018-12-15T00:22:16.988Z,6.437376
2018-12-15T00:22:29.341Z,6.437376
2018-12-15T00:22:41.674Z,6.437376
2018-12-15T00:22:54.006Z,6.437376
2018-12-15T00:23:06.359Z,9.656064
2018-12-15T00:23:18.721Z,9.656064
2018-12-15T00:23:31.087Z,9.656064
2018-12-15T00:23:43.442Z,9.656064
2018-12-15T00:23:55.790Z,9.656064
2018-12-15T00:24:08.134Z,8.04672
2018-12-15T00:24:20.486Z,8.04672
2018-12-15T00:24:32.828Z,8.04672
2018-12-15T00:24:45.164Z,8.04672
2018-12-15T00:24:57.517Z,8.04672
2018-12-15T00:25:09.984Z,1.609344
2018-12-15T00:25:22.313Z,1.609344
2018-12-15T00:25:34.867Z,1.609344
2018-12-15T00:25:47.286Z,8.04672
2018-12-15T00:25:59.643Z,8.04672
2018-12-15T00:26:11.984Z,4.828032
2018-12-15T00:26:24.313Z,8.04672
2018-12-15T00:26:37.163Z,11.265408
2018-12-15T00:26:49.488Z,11.265408
2018-12-15T00:27:01.838Z,11.265408
2018-12-15T00:27:14.178Z,6.437376
2018-12-15T00:27:26.570Z,11.265408
2018-12-15T00:27:38.914Z,11.265408
2018-12-15T00:27:51.258Z,11.265408
2018-12-15T00:28:03.602Z,11.265408
2018-12-15T00:28:15.972Z,8.04672
2018-12-15T00:28:28.420Z,8.04672
2018-12-15T00:28:40.804Z,8.04672
2018-12-15T00:28:53.273Z,11.265408
2018-12-15T00:29:05.675Z,6.437376
2018-12-15T00:29:18.026Z,8.04672
2018-12-15T00:29:30.368Z,8.04672
2018-12-15T00:29:42.751Z,8.04672
2018-12-15T00:29:55.094Z,8.04672
2018-12-15T00:30:07.524Z,1.609344
2018-12-15T00:30:20.514Z,6.437376
2018-12-15T00:30:32.882Z,6.437376
2018-12-15T00:30:45.235Z,6.437376
2018-12-15T00:30:57.783Z,6.437376
2018-12-15T00:31:10.210Z,1.609344
2018-12-15T00:31:22.619Z,6.437376
2018-12-15T00:31:34.975Z,6.437376
2018-12-15T00:31:47.326Z,6.437376
2018-12-15T00:31:59.657Z,6.437376
2018-12-15T00:32:12.159Z,1.609344
2018-12-15T00:32:24.883Z,1.609344
2018-12-15T00:32:37.238Z,1.609344
2018-12-15T00:32:49.660Z,1.609344
2018-12-15T00:33:01.993Z,1.609344
2018-12-15T00:33:14.334Z,1.609344
2018-12-15T00:33:26.694Z,8.04672
2018-12-15T00:33:39.181Z,9.656064
2018-12-15T00:33:51.523Z,11.265408
2018-12-15T00:34:03.883Z,11.265408
2018-12-15T00:34:16.233Z,8.04672
2018-12-15T00:34:28.597Z,8.04672
2018-12-15T00:34:40.950Z,8.04672
2018-12-15T00:34:53.504Z,8.04672
2018-12-15T00:35:05.878Z,9.656064
2018-12-15T00:35:18.265Z,9.656064
2018-12-15T00:35:30.610Z,9.656064
2018-12-15T00:35:42.961Z,9.656064
2018-12-15T00:35:55.309Z,9.656064
2018-12-15T00:36:07.754Z,3.218688
2018-12-15T00:36:20.323Z,3.218688
2018-12-15T00:36:32.667Z,3.218688
2018-12-15T00:36:44.995Z,3.218688
2018-12-15T00:36:57.330Z,3.218688
2018-12-15T00:37:09.739Z,0
2018-12-15T00:37:22.079Z,1.609344
2018-12-15T00:37:34.439Z,1.609344
2018-12-15T00:37:47.048Z,1.609344
2018-12-15T00:37:59.527Z,1.609344
2018-12-15T00:38:12.007Z,1.609344
2018-12-15T00:38:24.355Z,1.609344
2018-12-15T00:38:36.688Z,1.609344
2018-12-15T00:38:49.035Z,3.218688
2018-12-15T00:39:01.414Z,4.828032
2018-12-15T00:39:13.834Z,8.04672
2018-12-15T00:39:26.307Z,8.04672
2018-12-15T00:39:38.647Z,8.04672
2018-12-15T00:39:51.240Z,8.04672
2018-12-15T00:40:03.714Z,8.04672
2018-12-15T00:40:16.062Z,3.218688
2018-12-15T00:40:28.416Z,3.218688
2018-12-15T00:40:40.956Z,6.437376
2018-12-15T00:40:53.300Z,6.437376
2018-12-15T00:41:05.841Z,4.828032
2018-12-15T00:41:18.270Z,8.04672
2018-12-15T00:41:30.603Z,8.04672
2018-12-15T00:41:42.935Z,8.04672
2018-12-15T00:41:55.265Z,8.04672
2018-12-15T00:42:07.602Z,1.609344
2018-12-15T00:42:19.991Z,3.218688
2018-12-15T00:42:32.417Z,8.04672
2018-12-15T00:42:44.839Z,9.656064
2018-12-15T00:42:57.234Z,9.656064
2018-12-15T00:43:09.583Z,3.218688
2018-12-15T00:43:21.943Z,4.828032
2018-12-15T00:43:34.289Z,8.04672
2018-12-15T00:43:46.663Z,8.04672
2018-12-15T00:43:59.011Z,8.04672
2018-12-15T00:44:11.361Z,9.656064
2018-12-15T00:44:23.714Z,9.656064
2018-12-15T00:44:36.070Z,9.656064
2018-12-15T00:44:48.421Z,9.656064
2018-12-15T00:45:00.763Z,9.656064
2018-12-15T00:45:13.136Z,3.218688
2018-12-15T00:45:25.546Z,3.218688
2018-12-15T00:45:37.883Z,3.218688
2018-12-15T00:45:50.247Z,3.218688
2018-12-15T00:46:02.592Z,3.218688
2018-12-15T00:46:15.130Z,6.437376
2018-12-15T00:46:27.463Z,6.437376
2018-12-15T00:46:39.810Z,8.04672
2018-12-15T00:46:52.193Z,9.656064
2018-12-15T00:47:04.527Z,9.656064
2018-12-15T00:47:23.989Z,6.437376
2018-12-15T00:47:36.405Z,6.437376
2018-12-15T00:47:48.761Z,6.437376
2018-12-15T00:48:01.092Z,6.437376
2018-12-15T00:48:13.444Z,6.437376
2018-12-15T00:48:25.786Z,8.04672
2018-12-15T00:48:38.124Z,8.04672
2018-12-15T00:48:50.484Z,8.04672
2018-12-15T00:49:02.851Z,8.04672
2018-12-15T00:49:15.193Z,3.218688
2018-12-15T00:49:27.669Z,4.828032
2018-12-15T00:49:40.017Z,4.828032
2018-12-15T00:49:52.365Z,4.828032
2018-12-15T00:50:04.772Z,3.218688
2018-12-15T00:50:17.143Z,6.437376
2018-12-15T00:50:29.530Z,6.437376
2018-12-15T00:50:41.868Z,6.437376
2018-12-15T00:50:54.223Z,6.437376
2018-12-15T00:51:06.555Z,6.437376
2018-12-15T00:51:18.983Z,6.437376
2018-12-15T00:51:31.330Z,6.437376
2018-12-15T00:51:43.668Z,8.04672
2018-12-15T00:51:56.002Z,9.656064
2018-12-15T00:52:08.474Z,9.656064
2018-12-15T00:52:20.822Z,9.656064
2018-12-15T00:52:33.166Z,9.656064
2018-12-15T00:52:45.498Z,9.656064
2018-12-15T00:52:57.850Z,9.656064
2018-12-15T00:53:10.211Z,6.437376
2018-12-15T00:53:22.543Z,6.437376
2018-12-15T00:53:34.942Z,6.437376
2018-12-15T00:53:47.281Z,6.437376
2018-12-15T00:53:59.638Z,6.437376
2018-12-15T00:54:11.986Z,3.218688
2018-12-15T00:54:24.342Z,9.656064
2018-12-15T00:54:36.670Z,9.656064
2018-12-15T00:54:49.040Z,9.656064
2018-12-15T00:55:01.570Z,9.656064
2018-12-15T00:55:14.032Z,1.609344
2018-12-15T00:55:26.459Z,3.218688
2018-12-15T00:55:38.809Z,6.437376
2018-12-15T00:55:51.165Z,9.656064
2018-12-15T00:56:03.522Z,6.437376
2018-12-15T00:56:15.941Z,8.04672
2018-12-15T00:56:28.271Z,9.656064
2018-12-15T00:56:40.837Z,9.656064
2018-12-15T00:56:53.247Z,9.656064
2018-12-15T00:57:05.572Z,8.04672
2018-12-15T00:57:17.980Z,8.04672
2018-12-15T00:57:30.303Z,8.04672
2018-12-15T00:57:42.633Z,8.04672
2018-12-15T00:57:54.968Z,8.04672
2018-12-15T00:58:07.310Z,3.218688
2018-12-15T00:58:21.098Z,9.656064
2018-12-15T00:58:33.465Z,9.656064
2018-12-15T00:58:45.864Z,9.656064
2018-12-15T00:58:58.317Z,9.656064
2018-12-15T00:59:10.667Z,3.218688
2018-12-15T00:59:23.028Z,3.218688
2018-12-15T00:59:35.398Z,6.437376
2018-12-15T00:59:47.829Z,6.437376
2018-12-15T01:00:00.174Z,6.437376
2018-12-15T01:00:12.556Z,3.218688
2018-12-15T01:00:24.959Z,4.828032
2018-12-15T01:00:37.325Z,4.828032
2018-12-15T01:00:49.669Z,4.828032
2018-12-15T01:01:02.034Z,4.828032
2018-12-15T01:01:14.381Z,6.437376
2018-12-15T01:01:26.723Z,6.437376
2018-12-15T01:01:39.092Z,6.437376
2018-12-15T01:01:51.460Z,6.437376
2018-12-15T01:02:03.837Z,1.609344
2018-12-15T01:02:16.184Z,1.609344
2018-12-15T01:02:28.891Z,3.218688
2018-12-15T01:02:41.289Z,3.218688
2018-12-15T01:02:53.635Z,4.828032
2018-12-15T01:03:06.014Z,4.828032
2018-12-15T01:03:18.355Z,4.828032
2018-12-15T01:03:30.695Z,4.828032
2018-12-15T01:03:43.045Z,4.828032
2018-12-15T01:03:55.410Z,4.828032
2018-12-15T01:04:07.772Z,9.656064
2018-12-15T01:04:20.122Z,9.656064
2018-12-15T01:04:32.467Z,9.656064
2018-12-15T01:04:44.816Z,9.656064
2018-12-15T01:04:57.186Z,9.656064
2018-12-15T01:05:09.535Z,4.828032
2018-12-15T01:05:21.879Z,4.828032
2018-12-15T01:05:34.245Z,8.04672
2018-12-15T01:05:46.586Z,8.04672
2018-12-15T01:05:58.932Z,8.04672
2018-12-15T01:06:11.269Z,6.437376
2018-12-15T01:06:23.719Z,6.437376
2018-12-15T01:06:36.066Z,6.437376
2018-12-15T01:06:48.410Z,6.437376
2018-12-15T01:07:00.758Z,6.437376
2018-12-15T01:07:13.141Z,3.218688
2018-12-15T01:07:25.497Z,3.218688
2018-12-15T01:07:38.688Z,3.218688
2018-12-15T01:07:51.029Z,6.437376
2018-12-15T01:08:03.372Z,4.828032
2018-12-15T01:08:15.745Z,6.437376
2018-12-15T01:08:28.083Z,6.437376
2018-12-15T01:08:40.431Z,6.437376
2018-12-15T01:08:52.774Z,6.437376
2018-12-15T01:09:05.126Z,6.437376
2018-12-15T01:09:17.659Z,6.437376
2018-12-15T01:09:30.021Z,8.04672
2018-12-15T01:09:42.353Z,8.04672
2018-12-15T01:09:54.701Z,8.04672
2018-12-15T01:10:07.053Z,3.218688
2018-12-15T01:10:19.463Z,9.656064
2018-12-15T01:10:31.806Z,9.656064
2018-12-15T01:10:44.162Z,9.656064
2018-12-15T01:10:56.576Z,9.656064
2018-12-15T01:11:08.945Z,4.828032
2018-12-15T01:11:21.294Z,6.437376
2018-12-15T01:11:33.650Z,6.437376
2018-12-15T01:11:46.010Z,6.437376
2018-12-15T01:11:58.342Z,6.437376
2018-12-15T01:12:10.899Z,1.609344
2018-12-15T01:12:23.321Z,6.437376
2018-12-15T01:12:35.668Z,6.437376
2018-12-15T01:12:48.028Z,6.437376
2018-12-15T01:13:00.386Z,6.437376
2018-12-15T01:13:12.744Z,1.609344
2018-12-15T01:13:25.127Z,1.609344
2018-12-15T01:13:37.471Z,1.609344
2018-12-15T01:13:49.818Z,1.609344
2018-12-15T01:14:02.174Z,1.609344
2018-12-15T01:14:14.560Z,1.609344
2018-12-15T01:14:26.909Z,1.609344
2018-12-15T01:14:39.248Z,3.218688
2018-12-15T01:14:51.587Z,8.04672
2018-12-15T01:15:03.947Z,3.218688
2018-12-15T01:15:16.272Z,3.218688
2018-12-15T01:15:28.604Z,9.656064
2018-12-15T01:15:41.031Z,11.265408
2018-12-15T01:15:53.384Z,11.265408
2018-12-15T01:16:05.739Z,6.437376
2018-12-15T01:16:18.110Z,8.04672
2018-12-15T01:16:30.477Z,9.656064
2018-12-15T01:16:42.963Z,9.656064
2018-12-15T01:16:55.316Z,9.656064
2018-12-15T01:17:07.735Z,6.437376
2018-12-15T01:17:26.164Z,6.437376
2018-12-15T01:17:38.519Z,6.437376
2018-12-15T01:17:50.858Z,6.437376
2018-12-15T01:18:03.208Z,4.828032
2018-12-15T01:18:15.565Z,6.437376
2018-12-15T01:18:27.906Z,6.437376
2018-12-15T01:18:40.468Z,6.437376
2018-12-15T01:18:52.872Z,6.437376
2018-12-15T01:19:05.238Z,4.828032
2018-12-15T01:19:17.587Z,8.04672
2018-12-15T01:19:29.939Z,8.04672
2018-12-15T01:19:42.276Z,8.04672
2018-12-15T01:19:54.629Z,8.04672
2018-12-15T01:20:07.054Z,8.04672
2018-12-15T01:20:19.394Z,8.04672
2018-12-15T01:20:31.736Z,8.04672
2018-12-15T01:20:44.114Z,8.04672
2018-12-15T01:20:56.452Z,8.04672
2018-12-15T01:21:08.803Z,1.609344
2018-12-15T01:21:21.153Z,1.609344
2018-12-15T01:21:33.489Z,1.609344
2018-12-15T01:21:45.853Z,1.609344
2018-12-15T01:21:58.189Z,6.437376
2018-12-15T01:22:10.582Z,3.218688
2018-12-15T01:22:22.921Z,4.828032
2018-12-15T01:22:35.268Z,4.828032
2018-12-15T01:22:47.622Z,6.437376
2018-12-15T01:23:00.021Z,9.656064
2018-12-15T01:23:12.375Z,11.265408
2018-12-15T01:23:24.742Z,11.265408
2018-12-15T01:23:37.091Z,11.265408
2018-12-15T01:23:49.446Z,11.265408
2018-12-15T01:24:01.781Z,11.265408
2018-12-15T01:24:14.347Z,6.437376
2018-12-15T01:24:26.756Z,6.437376
2018-12-15T01:24:39.210Z,6.437376
2018-12-15T01:24:51.559Z,6.437376
2018-12-15T01:25:04.168Z,6.437376
2018-12-15T01:25:16.511Z,6.437376
2018-12-15T01:25:29.015Z,6.437376
2018-12-15T01:25:41.359Z,6.437376
2018-12-15T01:25:53.695Z,6.437376
2018-12-15T01:26:06.048Z,3.218688
2018-12-15T01:26:18.381Z,3.218688
2018-12-15T01:26:30.868Z,4.828032
2018-12-15T01:26:43.220Z,4.828032
2018-12-15T01:26:55.625Z,4.828032
2018-12-15T01:27:07.984Z,3.218688
2018-12-15T01:27:20.328Z,6.437376
2018-12-15T01:27:32.665Z,6.437376
2018-12-15T01:27:45.010Z,6.437376
2018-12-15T01:27:57.364Z,6.437376
2018-12-15T01:28:09.732Z,3.218688
2018-12-15T01:28:22.065Z,3.218688
2018-12-15T01:28:34.393Z,3.218688
2018-12-15T01:28:46.902Z,4.828032
2018-12-15T01:28:59.236Z,4.828032
2018-12-15T01:29:11.569Z,4.828032
2018-12-15T01:29:23.934Z,6.437376
2018-12-15T01:29:36.279Z,8.04672
2018-12-15T01:29:48.694Z,9.656064
2018-12-15T01:30:01.019Z,11.265408
2018-12-15T01:30:13.371Z,12.874752
2018-12-15T01:30:25.723Z,12.874752
2018-12-15T01:30:38.080Z,12.874752
2018-12-15T01:30:50.426Z,12.874752
2018-12-15T01:31:02.783Z,11.265408
2018-12-15T01:31:15.131Z,11.265408
2018-12-15T01:31:27.515Z,11.265408
2018-12-15T01:31:39.889Z,11.265408
2018-12-15T01:31:52.433Z,11.265408
2018-12-15T01:32:04.937Z,9.656064
2018-12-15T01:32:17.440Z,9.656064
2018-12-15T01:32:29.913Z,9.656064
2018-12-15T01:32:42.259Z,9.656064
2018-12-15T01:32:54.635Z,9.656064
2018-12-15T01:33:06.990Z,3.218688
2018-12-15T01:33:19.336Z,4.828032
2018-12-15T01:33:31.893Z,4.828032
2018-12-15T01:33:44.239Z,4.828032
2018-12-15T01:33:56.577Z,6.437376
2018-12-15T01:34:09.578Z,3.218688
2018-12-15T01:34:21.947Z,4.828032
2018-12-15T01:34:34.312Z,4.828032
2018-12-15T01:34:46.862Z,4.828032
2018-12-15T01:34:59.221Z,4.828032
2018-12-15T01:35:11.573Z,1.609344
2018-12-15T01:35:23.904Z,3.218688
2018-12-15T01:35:36.242Z,3.218688
2018-12-15T01:35:48.649Z,3.218688
2018-12-15T01:36:01.050Z,4.828032
2018-12-15T01:36:13.406Z,6.437376
2018-12-15T01:36:25.790Z,11.265408
2018-12-15T01:36:38.154Z,11.265408
2018-12-15T01:36:50.493Z,11.265408
2018-12-15T01:37:02.838Z,8.04672
2018-12-15T01:37:15.220Z,9.656064
2018-12-15T01:37:27.550Z,9.656064
2018-12-15T01:37:40.055Z,9.656064
2018-12-15T01:37:52.502Z,9.656064
2018-12-15T01:38:05.023Z,11.265408
2018-12-15T01:38:17.489Z,11.265408
2018-12-15T01:38:29.846Z,11.265408
2018-12-15T01:38:42.190Z,11.265408
2018-12-15T01:38:54.531Z,11.265408
2018-12-15T01:39:06.954Z,11.265408
2018-12-15T01:39:21.019Z,11.265408
2018-12-15T01:39:33.361Z,11.265408
2018-12-15T01:39:45.709Z,11.265408
2018-12-15T01:39:58.261Z,11.265408
2018-12-15T01:40:10.748Z,3.218688
2018-12-15T01:40:23.116Z,3.218688
2018-12-15T01:40:35.465Z,8.04672
2018-12-15T01:40:47.811Z,8.04672
2018-12-15T01:41:00.279Z,14.484096
2018-12-15T01:41:12.718Z,11.265408
2018-12-15T01:41:25.084Z,11.265408
2018-12-15T01:41:37.414Z,11.265408
2018-12-15T01:41:49.744Z,11.265408
2018-12-15T01:42:02.105Z,11.265408
2018-12-15T01:42:14.466Z,6.437376
2018-12-15T01:42:26.799Z,8.04672
2018-12-15T01:42:39.144Z,8.04672
2018-12-15T01:42:51.492Z,8.04672
2018-12-15T01:43:03.836Z,3.218688
2018-12-15T01:43:16.182Z,11.265408
2018-12-15T01:43:28.530Z,11.265408
2018-12-15T01:43:40.882Z,11.265408
2018-12-15T01:43:53.229Z,11.265408
2018-12-15T01:44:05.582Z,1.609344
2018-12-15T01:44:17.997Z,3.218688
2018-12-15T01:44:30.386Z,3.218688
2018-12-15T01:44:42.731Z,6.437376
2018-12-15T01:44:55.094Z,6.437376
2018-12-15T01:45:07.456Z,6.437376
2018-12-15T01:45:19.791Z,6.437376
2018-12-15T01:45:32.151Z,6.437376
2018-12-15T01:45:44.588Z,6.437376
2018-12-15T01:45:56.945Z,6.437376
2018-12-15T01:46:10.849Z,6.437376
2018-12-15T01:46:23.220Z,6.437376
2018-12-15T01:46:35.565Z,6.437376
2018-12-15T01:46:48.023Z,6.437376
2018-12-15T01:47:00.376Z,6.437376
2018-12-15T01:47:12.773Z,0
2018-12-15T01:47:31.579Z,0
2018-12-15T01:47:43.918Z,0
2018-12-15T01:47:56.258Z,0
2018-12-15T01:48:08.615Z,0
2018-12-15T01:48:20.949Z,1.609344
2018-12-15T01:48:33.277Z,1.609344
2018-12-15T01:48:45.626Z,3.218688
2018-12-15T01:48:57.979Z,3.218688
2018-12-15T01:49:10.352Z,1.609344
2018-12-15T01:49:22.690Z,1.609344
2018-12-15T01:49:35.141Z,1.609344
2018-12-15T01:49:47.549Z,1.609344
2018-12-15T01:49:59.896Z,1.609344
2018-12-15T01:50:12.342Z,3.218688
2018-12-15T01:50:24.694Z,3.218688
2018-12-15T01:50:37.034Z,6.437376
2018-12-15T01:50:49.371Z,6.437376
2018-12-15T01:51:01.776Z,6.437376
2018-12-15T01:51:14.154Z,1.609344
2018-12-15T01:51:26.501Z,1.609344
2018-12-15T01:51:38.864Z,3.218688
2018-12-15T01:51:51.249Z,6.437376
2018-12-15T01:52:03.610Z,6.437376
2018-12-15T01:52:16.199Z,9.656064
2018-12-15T01:52:28.540Z,9.656064
2018-12-15T01:52:40.895Z,9.656064
2018-12-15T01:52:53.250Z,9.656064
2018-12-15T01:53:05.611Z,9.656064
2018-12-15T01:53:17.941Z,9.656064
2018-12-15T01:53:30.285Z,9.656064
2018-12-15T01:53:42.625Z,9.656064
2018-12-15T01:53:54.968Z,9.656064
2018-12-15T01:54:07.311Z,8.04672
2018-12-15T01:54:19.658Z,8.04672
2018-12-15T01:54:32.023Z,8.04672
2018-12-15T01:54:44.376Z,8.04672
2018-12-15T01:54:56.858Z,8.04672
2018-12-15T01:55:09.272Z,3.218688
2018-12-15T01:55:21.649Z,4.828032
2018-12-15T01:55:33.993Z,4.828032
2018-12-15T01:55:46.341Z,4.828032
2018-12-15T01:55:58.775Z,4.828032
2018-12-15T01:56:11.115Z,1.609344
2018-12-15T01:56:23.457Z,1.609344
2018-12-15T01:56:35.811Z,3.218688
2018-12-15T01:56:48.323Z,6.437376
2018-12-15T01:57:00.659Z,6.437376
2018-12-15T01:57:13.076Z,4.828032
2018-12-15T01:57:25.463Z,4.828032
2018-12-15T01:57:37.802Z,9.656064
2018-12-15T01:57:50.156Z,9.656064
2018-12-15T01:58:02.558Z,9.656064
2018-12-15T01:58:14.909Z,6.437376
2018-12-15T01:58:27.999Z,6.437376
2018-12-15T01:58:40.406Z,8.04672
2018-12-15T01:58:52.740Z,8.04672
2018-12-15T01:59:05.533Z,4.828032
2018-12-15T01:59:17.919Z,6.437376
2018-12-15T01:59:30.257Z,6.437376
2018-12-15T01:59:42.607Z,6.437376
2018-12-15T01:59:55.013Z,6.437376
2018-12-15T02:00:07.426Z,3.218688
2018-12-15T02:00:19.791Z,3.218688
2018-12-15T02:00:32.164Z,3.218688
2018-12-15T02:00:44.532Z,6.437376
2018-12-15T02:00:56.876Z,6.437376
2018-12-15T02:01:09.237Z,1.609344
2018-12-15T02:01:21.570Z,3.218688
2018-12-15T02:01:33.924Z,3.218688
2018-12-15T02:01:46.283Z,3.218688
2018-12-15T02:01:58.636Z,3.218688
2018-12-15T02:02:10.982Z,1.609344
2018-12-15T02:02:23.354Z,6.437376
2018-12-15T02:02:36.007Z,6.437376
2018-12-15T02:02:48.358Z,6.437376
2018-12-15T02:03:00.710Z,6.437376
2018-12-15T02:03:13.063Z,1.609344
2018-12-15T02:03:25.422Z,3.218688
2018-12-15T02:03:37.778Z,3.218688
2018-12-15T02:03:50.128Z,3.218688
2018-12-15T02:04:02.520Z,3.218688
2018-12-15T02:04:14.875Z,0
2018-12-15T02:04:27.238Z,1.609344
2018-12-15T02:04:39.599Z,1.609344
2018-12-15T02:04:51.976Z,1.609344
2018-12-15T02:05:04.371Z,1.609344
2018-12-15T02:05:16.740Z,1.609344
2018-12-15T02:05:29.200Z,1.609344
2018-12-15T02:05:41.601Z,1.609344
2018-12-15T02:05:53.998Z,3.218688
2018-12-15T02:06:06.414Z,3.218688
2018-12-15T02:06:18.864Z,3.218688
2018-12-15T02:06:31.207Z,3.218688
2018-12-15T02:06:43.575Z,3.218688
2018-12-15T02:06:55.929Z,6.437376
2018-12-15T02:07:08.245Z,6.437376
2018-12-15T02:07:20.617Z,8.04672
2018-12-15T02:07:33.045Z,8.04672
2018-12-15T02:07:45.561Z,8.04672
2018-12-15T02:07:57.901Z,8.04672
2018-12-15T02:08:10.251Z,4.828032
2018-12-15T02:08:22.613Z,4.828032
2018-12-15T02:08:34.945Z,4.828032
2018-12-15T02:08:47.297Z,4.828032
2018-12-15T02:08:59.646Z,4.828032
2018-12-15T02:09:11.973Z,6.437376
2018-12-15T02:09:24.313Z,6.437376
2018-12-15T02:09:36.658Z,6.437376
2018-12-15T02:09:49.009Z,8.04672
2018-12-15T02:10:01.741Z,8.04672
2018-12-15T02:10:14.091Z,3.218688
2018-12-15T02:10:26.430Z,3.218688
2018-12-15T02:10:38.790Z,9.656064
2018-12-15T02:10:51.135Z,11.265408
2018-12-15T02:11:03.466Z,6.437376
2018-12-15T02:11:15.831Z,6.437376
2018-12-15T02:11:28.205Z,6.437376
2018-12-15T02:11:40.568Z,8.04672
2018-12-15T02:11:54.390Z,9.656064
2018-12-15T02:12:06.755Z,8.04672
2018-12-15T02:12:19.101Z,11.265408
2018-12-15T02:12:31.443Z,11.265408
2018-12-15T02:12:43.790Z,11.265408
2018-12-15T02:12:56.138Z,11.265408
2018-12-15T02:13:08.506Z,1.609344
2018-12-15T02:13:20.850Z,9.656064
2018-12-15T02:13:33.199Z,9.656064
2018-12-15T02:13:45.566Z,9.656064
2018-12-15T02:13:57.909Z,9.656064
2018-12-15T02:14:10.257Z,6.437376
2018-12-15T02:14:22.613Z,6.437376
2018-12-15T02:14:34.948Z,6.437376
2018-12-15T02:14:47.299Z,6.437376
2018-12-15T02:14:59.659Z,6.437376
2018-12-15T02:15:12.036Z,3.218688
2018-12-15T02:15:24.377Z,3.218688
2018-12-15T02:15:36.716Z,3.218688
2018-12-15T02:15:49.178Z,3.218688
2018-12-15T02:16:01.533Z,3.218688
2018-12-15T02:16:13.911Z,1.609344
2018-12-15T02:16:26.251Z,3.218688
2018-12-15T02:16:38.752Z,6.437376
2018-12-15T02:16:51.111Z,6.437376
2018-12-15T02:17:03.439Z,3.218688
2018-12-15T02:17:15.807Z,3.218688
2018-12-15T02:17:34.697Z,3.218688
2018-12-15T02:17:47.055Z,6.437376
2018-12-15T02:17:59.404Z,8.04672
2018-12-15T02:18:11.736Z,4.828032
2018-12-15T02:18:24.068Z,6.437376
2018-12-15T02:18:36.407Z,6.437376
2018-12-15T02:18:48.817Z,6.437376
2018-12-15T02:19:01.163Z,6.437376
2018-12-15T02:19:13.689Z,8.04672
2018-12-15T02:19:26.063Z,8.04672
2018-12-15T02:19:38.431Z,8.04672
2018-12-15T02:19:50.793Z,8.04672
2018-12-15T02:20:03.133Z,0
2018-12-15T02:20:15.481Z,1.609344
2018-12-15T02:20:27.824Z,1.609344
2018-12-15T02:20:40.162Z,1.609344
2018-12-15T02:20:52.601Z,1.609344
2018-12-15T02:21:04.966Z,1.609344
2018-12-15T02:21:17.309Z,4.828032
2018-12-15T02:21:29.655Z,4.828032
2018-12-15T02:21:42.000Z,6.437376
2018-12-15T02:21:54.503Z,6.437376
2018-12-15T02:22:06.834Z,3.218688
2018-12-15T02:22:19.155Z,6.437376
2018-12-15T02:22:31.507Z,6.437376
2018-12-15T02:22:43.877Z,6.437376
2018-12-15T02:22:56.228Z,6.437376
2018-12-15T02:23:08.570Z,4.828032
2018-12-15T02:23:20.915Z,6.437376
2018-12-15T02:23:33.268Z,6.437376
2018-12-15T02:23:45.624Z,6.437376
2018-12-15T02:23:57.978Z,12.874752
2018-12-15T02:24:10.320Z,12.874752
2018-12-15T02:24:22.702Z,12.874752
2018-12-15T02:24:35.023Z,12.874752
2018-12-15T02:24:47.445Z,12.874752
2018-12-15T02:24:59.837Z,12.874752
2018-12-15T02:25:12.605Z,8.04672
2018-12-15T02:25:24.940Z,8.04672
2018-12-15T02:25:37.358Z,8.04672
2018-12-15T02:25:49.684Z,11.265408
2018-12-15T02:26:02.023Z,11.265408
2018-12-15T02:26:14.387Z,8.04672
2018-12-15T02:26:27.072Z,8.04672
2018-12-15T02:26:39.421Z,8.04672